createdAt,value
2022-08-16T00:02:32.986Z,2.73
2022-08-16T00:05:01.217Z,2.70
2022-08-16T00:07:29.650Z,2.60
2022-08-16T00:09:58.863Z,2.70
2022-08-16T00:12:27.630Z,2.83
2022-08-16T00:14:57.943Z,2.80
2022-08-16T00:17:28.148Z,2.90
2022-08-16T00:19:56.907Z,2.90
2022-08-16T00:22:25.726Z,3.13
2022-08-16T00:24:55.851Z,2.90
2022-08-16T00:27:24.285Z,3.17
2022-08-16T00:30:08.495Z,3.37
2022-08-16T00:32:39.794Z,3.47
2022-08-16T00:35:15.280Z,3.60
2022-08-16T00:37:56.183Z,3.00
2022-08-16T00:40:34.755Z,3.20
2022-08-16T00:43:11.798Z,3.13
2022-08-16T00:46:00.120Z,3.30
2022-08-16T00:48:45.498Z,3.13
2022-08-16T00:51:16.175Z,3.07
2022-08-16T00:53:46.514Z,3.73
2022-08-16T00:56:58.379Z,3.70
2022-08-16T00:59:06.994Z,3.30
2022-08-16T01:01:35.900Z,3.10
2022-08-16T01:04:29.195Z,3.33
2022-08-16T01:07:01.820Z,3.50
2022-08-16T01:09:33.189Z,3.40
2022-08-16T01:12:02.915Z,3.60
2022-08-16T01:14:36.309Z,3.43
2022-08-16T01:17:08.471Z,3.60
2022-08-16T01:19:42.796Z,3.53
2022-08-16T01:22:47.777Z,3.57
2022-08-16T01:25:11.047Z,3.70
2022-08-16T01:27:45.043Z,3.60
2022-08-16T01:30:19.987Z,3.63
2022-08-16T01:33:01.304Z,3.70
2022-08-16T01:35:36.279Z,3.40
2022-08-16T01:38:19.605Z,3.30
2022-08-16T01:40:50.089Z,3.43
2022-08-16T01:43:18.346Z,3.90
2022-08-16T01:45:47.485Z,3.90
2022-08-16T01:48:27.880Z,3.83
2022-08-16T01:51:16.559Z,3.43
2022-08-16T01:53:44.007Z,3.97
2022-08-16T01:56:24.890Z,3.87
2022-08-16T01:58:53.808Z,4.03
2022-08-16T02:01:21.884Z,3.80
2022-08-16T02:03:50.733Z,4.17
2022-08-16T02:06:33.738Z,4.07
2022-08-16T02:09:05.154Z,4.03
2022-08-16T02:11:47.952Z,3.97
2022-08-16T02:14:18.262Z,3.80
2022-08-16T02:16:49.184Z,3.80
2022-08-16T02:19:18.398Z,3.90
2022-08-16T02:22:08.554Z,3.73
2022-08-16T02:24:41.260Z,3.90
2022-08-16T02:27:12.271Z,4.23
2022-08-16T02:29:41.263Z,4.10
2022-08-16T02:32:49.361Z,4.30
2022-08-16T02:34:59.234Z,4.23
2022-08-16T02:37:51.732Z,4.20
2022-08-16T02:40:17.748Z,4.27
2022-08-16T02:42:49.597Z,4.67
2022-08-16T02:45:19.759Z,4.17
2022-08-16T02:48:00.964Z,4.97
2022-08-16T02:50:55.463Z,4.73
2022-08-16T02:53:23.823Z,4.67
2022-08-16T02:55:51.738Z,4.30
2022-08-16T02:58:24.964Z,4.43
2022-08-16T03:00:56.011Z,4.30
2022-08-16T03:03:24.836Z,4.47
2022-08-16T03:05:53.105Z,4.17
2022-08-16T03:08:51.071Z,4.33
2022-08-16T03:11:17.786Z,4.23
2022-08-16T03:13:56.621Z,4.40
2022-08-16T03:16:38.110Z,4.50
2022-08-16T03:19:08.278Z,4.97
2022-08-16T03:21:38.086Z,4.80
2022-08-16T03:24:28.148Z,4.53
2022-08-16T03:26:58.210Z,4.90
2022-08-16T03:29:30.404Z,5.10
2022-08-16T03:31:59.426Z,3.90
2022-08-16T03:34:27.518Z,4.77
2022-08-16T03:36:56.122Z,4.90
2022-08-16T03:39:24.371Z,4.87
2022-08-16T03:42:00.061Z,5.00
2022-08-16T03:44:44.831Z,5.50
2022-08-16T03:47:19.151Z,5.37
2022-08-16T03:49:51.761Z,5.50
2022-08-16T03:52:20.559Z,5.27
2022-08-16T03:54:53.654Z,5.50
2022-08-16T03:57:32.061Z,5.50
2022-08-16T04:00:36.007Z,4.93
2022-08-16T04:03:07.316Z,5.63
2022-08-16T04:05:36.904Z,6.40
2022-08-16T04:08:23.291Z,6.03
2022-08-16T04:10:54.891Z,6.17
2022-08-16T04:13:59.047Z,5.57
2022-08-16T04:16:26.509Z,5.93
2022-08-16T04:19:02.299Z,6.20
2022-08-16T04:21:32.205Z,5.73
2022-08-16T04:24:00.476Z,6.03
2022-08-16T04:26:31.122Z,5.90
2022-08-16T04:29:15.183Z,5.50
2022-08-16T04:31:55.837Z,5.63
2022-08-16T04:34:27.909Z,5.37
2022-08-16T04:36:58.059Z,6.00
2022-08-16T04:39:44.836Z,5.70
2022-08-16T04:42:14.569Z,6.27
2022-08-16T04:44:53.529Z,5.77
2022-08-16T04:47:31.445Z,6.10
2022-08-16T04:50:01.605Z,4.93
2022-08-16T04:52:34.608Z,6.17
2022-08-16T04:55:08.174Z,5.67
2022-08-16T04:57:37.269Z,6.20
2022-08-16T05:00:30.932Z,6.27
2022-08-16T05:02:58.908Z,6.53
2022-08-16T05:05:32.672Z,6.70
2022-08-16T05:08:28.357Z,6.40
2022-08-16T05:10:50.216Z,6.97
2022-08-16T05:13:19.100Z,7.00
2022-08-16T05:15:47.793Z,7.20
2022-08-16T05:18:26.872Z,8.27
2022-08-16T05:21:01.765Z,6.80
2022-08-16T05:23:37.962Z,7.10
2022-08-16T05:26:06.356Z,6.80
2022-08-16T05:28:47.614Z,7.07
2022-08-16T05:31:23.982Z,6.87
2022-08-16T05:34:00.266Z,7.50
2022-08-16T05:36:33.944Z,7.63
2022-08-16T05:39:06.106Z,7.20
2022-08-16T05:41:44.691Z,7.83
2022-08-16T05:44:23.122Z,7.37
2022-08-16T05:46:55.824Z,7.10
2022-08-16T05:49:38.499Z,7.63
2022-08-16T05:52:11.608Z,7.73
2022-08-16T05:54:46.599Z,8.10
2022-08-16T05:57:17.122Z,8.47
2022-08-16T05:59:45.448Z,10.00
2022-08-16T06:02:14.343Z,8.00
2022-08-16T06:04:45.137Z,8.77
2022-08-16T06:07:25.174Z,9.20
2022-08-16T06:09:58.121Z,7.67
2022-08-16T06:12:28.979Z,7.27
2022-08-16T06:14:59.701Z,8.40
2022-08-16T06:17:41.217Z,7.63
2022-08-16T06:20:18.466Z,8.00
2022-08-16T06:22:57.460Z,8.10
2022-08-16T06:25:36.081Z,8.27
2022-08-16T06:28:10.107Z,7.67
2022-08-16T06:30:43.271Z,8.10
2022-08-16T06:33:12.764Z,7.27
2022-08-16T06:35:42.039Z,7.43
2022-08-16T06:38:32.563Z,7.13
2022-08-16T06:40:58.032Z,6.67
2022-08-16T06:43:27.407Z,7.50
2022-08-16T06:45:56.567Z,7.40
2022-08-16T06:48:33.032Z,7.40
2022-08-16T06:51:04.295Z,7.67
2022-08-16T06:53:33.681Z,7.73
2022-08-16T06:56:06.613Z,8.63
2022-08-16T06:58:43.013Z,8.30
2022-08-16T07:01:14.903Z,7.63
2022-08-16T07:03:55.172Z,7.00
2022-08-16T07:06:27.315Z,7.30
2022-08-16T07:08:56.067Z,6.60
2022-08-16T07:11:45.661Z,6.87
2022-08-16T07:14:25.641Z,7.27
2022-08-16T07:16:58.292Z,7.20
2022-08-16T07:19:33.724Z,7.70
2022-08-16T07:22:38.627Z,7.57
2022-08-16T07:25:07.416Z,6.90
2022-08-16T07:27:37.422Z,6.50
2022-08-16T07:30:39.320Z,6.83
2022-08-16T07:32:56.491Z,6.67
2022-08-16T07:35:24.805Z,6.53
2022-08-16T07:37:54.256Z,7.00
2022-08-16T07:40:36.973Z,6.27
2022-08-16T07:43:10.072Z,5.97
2022-08-16T07:45:39.093Z,6.03
2022-08-16T07:48:12.605Z,6.73
2022-08-16T07:50:57.263Z,5.93
2022-08-16T07:53:30.122Z,5.90
2022-08-16T07:56:00.104Z,6.17
2022-08-16T07:58:33.661Z,7.07
2022-08-16T08:01:05.571Z,5.87
2022-08-16T08:03:41.651Z,5.93
2022-08-16T08:06:11.916Z,5.10
2022-08-16T08:08:50.404Z,5.17
2022-08-16T08:11:21.277Z,5.33
2022-08-16T08:13:49.635Z,5.47
2022-08-16T08:16:19.880Z,5.40
2022-08-16T08:18:50.097Z,5.37
2022-08-16T08:21:19.576Z,5.37
2022-08-16T08:23:57.585Z,4.93
2022-08-16T08:26:26.252Z,4.70
2022-08-16T08:29:00.888Z,4.30
2022-08-16T08:31:29.879Z,5.17
2022-08-16T08:33:59.930Z,4.60
2022-08-16T08:36:33.439Z,4.33
2022-08-16T08:39:04.089Z,4.43
2022-08-16T08:41:42.238Z,4.90
2022-08-16T08:44:28.851Z,4.00
2022-08-16T08:47:01.357Z,4.10
2022-08-16T08:49:50.340Z,4.30
2022-08-16T08:52:33.629Z,4.27
2022-08-16T08:55:10.501Z,4.00
2022-08-16T08:57:40.773Z,4.17
2022-08-16T09:00:13.585Z,4.10
2022-08-16T09:02:44.604Z,3.40
2022-08-16T09:05:15.918Z,4.40
2022-08-16T09:08:01.793Z,4.10
2022-08-16T09:10:34.813Z,3.57
2022-08-16T09:13:08.799Z,3.65
2022-08-16T09:15:38.756Z,3.47
2022-08-16T09:18:26.459Z,4.20
2022-08-16T09:20:59.881Z,3.95
2022-08-16T09:23:31.092Z,3.65
2022-08-16T09:26:43.084Z,3.80
2022-08-16T09:29:14.359Z,4.00
2022-08-16T09:31:43.805Z,3.38
2022-08-16T09:34:17.231Z,3.95
2022-08-16T09:36:47.025Z,3.60
2022-08-16T09:39:16.250Z,3.83
2022-08-16T09:41:53.247Z,3.80
2022-08-16T09:45:09.441Z,3.53
2022-08-16T09:47:11.656Z,3.80
2022-08-16T09:49:40.988Z,3.80
2022-08-16T09:52:10.002Z,3.63
2022-08-16T09:54:38.938Z,3.53
2022-08-16T09:57:13.873Z,3.90
2022-08-16T09:59:43.148Z,3.70
2022-08-16T10:02:26.117Z,3.60
2022-08-16T10:04:57.061Z,3.40
2022-08-16T10:07:26.133Z,4.05
2022-08-16T10:10:12.009Z,3.70
2022-08-16T10:12:58.597Z,3.83
2022-08-16T10:15:30.273Z,3.47
2022-08-16T10:18:01.616Z,3.53
2022-08-16T10:20:34.539Z,3.33
2022-08-16T10:23:06.870Z,3.15
2022-08-16T10:27:17.214Z,3.55
2022-08-16T10:28:29.213Z,3.30
2022-08-16T10:30:59.430Z,3.50
2022-08-16T10:33:29.764Z,3.65
2022-08-16T10:36:03.830Z,3.33
2022-08-16T10:38:32.790Z,3.22
2022-08-16T10:41:01.474Z,3.72
2022-08-16T10:43:31.275Z,3.47
2022-08-16T10:46:01.145Z,3.28
2022-08-16T10:48:29.984Z,3.30
2022-08-16T10:51:00.114Z,3.53
2022-08-16T10:53:32.997Z,3.80
2022-08-16T10:56:02.518Z,3.38
2022-08-16T10:58:33.936Z,3.30
2022-08-16T11:01:25.077Z,3.40
2022-08-16T11:03:53.976Z,3.40
2022-08-16T11:06:26.998Z,3.10
2022-08-16T11:14:37.287Z,3.10
2022-08-16T11:17:09.203Z,3.28
2022-08-16T11:22:46.932Z,3.15
2022-08-16T11:28:08.639Z,3.03
2022-08-16T11:30:38.983Z,3.00
2022-08-16T11:33:08.858Z,3.22
2022-08-16T11:35:44.181Z,3.28
2022-08-16T11:38:46.636Z,3.03
2022-08-16T11:41:03.655Z,2.90
2022-08-16T11:43:33.773Z,2.92
2022-08-16T11:46:34.197Z,2.92
2022-08-16T11:48:54.788Z,3.22
2022-08-16T11:51:22.619Z,2.90
2022-08-16T11:53:50.492Z,2.88
2022-08-16T11:56:19.971Z,3.03
2022-08-16T11:59:08.314Z,2.53
2022-08-16T12:01:55.156Z,2.60
2022-08-16T12:04:23.820Z,2.53
2022-08-16T12:06:54.616Z,3.25
2022-08-16T12:09:23.995Z,2.92
2022-08-16T12:11:53.530Z,2.92
2022-08-16T12:14:23.018Z,2.60
2022-08-16T12:16:55.158Z,2.83
2022-08-16T12:19:35.223Z,2.65
2022-08-16T12:22:05.875Z,2.50
2022-08-16T12:24:52.038Z,3.00
2022-08-16T12:27:23.933Z,2.60
2022-08-16T12:29:52.558Z,2.90
2022-08-16T12:32:37.734Z,2.60
2022-08-16T12:35:13.041Z,2.58
2022-08-16T12:37:42.041Z,2.65
2022-08-16T12:40:23.972Z,2.60
2022-08-16T12:42:58.894Z,2.42
2022-08-16T12:45:30.120Z,2.30
2022-08-16T12:48:33.666Z,2.40
2022-08-16T12:51:03.260Z,2.10
2022-08-16T12:53:31.967Z,2.30
2022-08-16T12:56:00.458Z,2.38
2022-08-16T12:58:49.133Z,1.90
2022-08-16T13:01:16.619Z,2.50
2022-08-16T13:03:46.676Z,1.80
2022-08-16T13:06:20.117Z,2.17
2022-08-16T13:08:58.351Z,1.95
2022-08-16T13:11:33.696Z,1.95
2022-08-16T13:14:01.585Z,2.00
2022-08-16T13:16:33.241Z,2.30
2022-08-16T13:19:03.429Z,1.80
2022-08-16T13:21:35.427Z,2.20
2022-08-16T13:24:04.164Z,3.10
2022-08-16T13:26:33.703Z,2.22
2022-08-16T13:29:01.573Z,2.45
2022-08-16T13:31:29.469Z,2.30
2022-08-16T13:33:58.607Z,2.10
2022-08-16T13:39:17.077Z,2.20
2022-08-16T13:41:45.258Z,1.90
2022-08-16T13:44:22.500Z,1.92
2022-08-16T13:47:10.458Z,1.90
2022-08-16T13:49:38.340Z,1.90
2022-08-16T13:52:09.079Z,1.83
2022-08-16T13:54:36.860Z,1.90
2022-08-16T13:57:05.703Z,1.98
2022-08-16T13:59:33.589Z,1.70
2022-08-16T14:02:04.042Z,1.77
2022-08-16T14:04:36.513Z,1.77
2022-08-16T14:07:09.605Z,1.40
2022-08-16T14:09:38.265Z,1.58
2022-08-16T14:12:17.510Z,1.55
2022-08-16T14:14:46.811Z,1.63
2022-08-16T14:17:16.573Z,1.30
2022-08-16T14:19:46.187Z,1.58
2022-08-16T14:22:30.542Z,1.92
2022-08-16T14:25:00.896Z,1.48
2022-08-16T14:27:31.550Z,1.42
2022-08-16T14:30:01.137Z,1.30
2022-08-16T14:32:33.965Z,1.60
2022-08-16T14:35:04.000Z,1.63
2022-08-16T14:37:33.447Z,1.58
2022-08-16T14:40:01.361Z,1.17
2022-08-16T14:42:31.556Z,1.40
2022-08-16T14:45:00.673Z,1.30
2022-08-16T14:47:34.158Z,1.70
2022-08-16T14:50:03.251Z,1.10
2022-08-16T14:52:54.601Z,1.20
2022-08-16T14:55:23.943Z,1.50
2022-08-16T14:57:52.713Z,1.10
2022-08-16T15:00:33.013Z,1.40
2022-08-16T15:03:03.465Z,1.45
2022-08-16T15:05:32.982Z,1.40
2022-08-16T15:08:02.362Z,1.30
2022-08-16T15:10:32.239Z,1.60
2022-08-16T15:13:01.517Z,1.45
2022-08-16T15:15:31.360Z,1.20
2022-08-16T15:18:01.765Z,1.10
2022-08-16T15:20:33.753Z,1.30
2022-08-16T15:23:05.774Z,1.25
2022-08-16T15:25:36.672Z,1.20
2022-08-16T15:28:30.507Z,1.00
2022-08-16T15:31:00.967Z,1.30
2022-08-16T15:33:33.450Z,1.17
2022-08-16T15:36:02.283Z,1.35
2022-08-16T15:39:02.609Z,1.42
2022-08-16T15:42:01.165Z,1.27
2022-08-16T15:44:38.874Z,1.40
2022-08-16T15:47:18.762Z,1.20
2022-08-16T15:49:53.143Z,1.65
2022-08-16T15:52:29.858Z,1.20
2022-08-16T15:55:12.955Z,1.42
2022-08-16T15:57:44.240Z,1.35
2022-08-16T16:00:15.652Z,1.55
2022-08-16T16:02:44.227Z,1.80
2022-08-16T16:05:13.933Z,1.40
2022-08-16T16:07:55.719Z,1.58
2022-08-16T16:10:29.528Z,1.90
2022-08-16T16:12:59.700Z,1.58
2022-08-16T16:15:31.070Z,1.60
2022-08-16T16:17:59.958Z,1.55
2022-08-16T16:20:37.327Z,1.38
2022-08-16T16:23:11.141Z,1.52
2022-08-16T16:25:43.781Z,1.83
2022-08-16T16:28:46.345Z,1.83
2022-08-16T16:31:04.711Z,2.10
2022-08-16T16:33:33.949Z,1.50
2022-08-16T16:36:05.718Z,1.55
2022-08-16T16:38:36.013Z,1.60
2022-08-16T16:41:11.341Z,1.95
2022-08-16T16:43:42.928Z,1.50
2022-08-16T16:46:38.946Z,1.45
2022-08-16T16:49:03.029Z,1.65
2022-08-16T16:51:32.665Z,1.40
2022-08-16T16:54:12.984Z,1.70
2022-08-16T16:56:49.581Z,1.77
2022-08-16T16:59:18.217Z,1.67
2022-08-16T17:01:59.659Z,1.90
2022-08-16T17:04:37.654Z,2.25
2022-08-16T17:07:10.482Z,1.88
2022-08-16T17:09:40.408Z,1.77
2022-08-16T17:12:21.700Z,1.70
2022-08-16T17:14:53.512Z,1.80
2022-08-16T17:17:21.656Z,1.73
2022-08-16T17:19:49.740Z,2.05
2022-08-16T17:22:20.205Z,2.20
2022-08-16T17:24:50.743Z,1.50
2022-08-16T17:27:33.287Z,1.40
2022-08-16T17:30:03.581Z,1.80
2022-08-16T17:32:50.491Z,1.70
2022-08-16T17:35:25.342Z,1.67
2022-08-16T17:38:04.722Z,1.90
2022-08-16T17:40:51.999Z,1.60
2022-08-16T17:43:28.988Z,1.50
2022-08-16T17:45:57.527Z,1.77
2022-08-16T17:48:26.141Z,1.95
2022-08-16T17:50:54.581Z,1.60
2022-08-16T17:53:22.959Z,1.60
2022-08-16T17:55:51.526Z,1.70
2022-08-16T17:58:23.107Z,1.60
2022-08-16T18:00:55.859Z,2.67
2022-08-16T18:04:02.334Z,1.63
2022-08-16T18:06:18.395Z,1.85
2022-08-16T18:08:49.127Z,1.60
2022-08-16T18:11:25.687Z,1.70
2022-08-16T18:13:55.049Z,1.75
2022-08-16T18:16:24.454Z,1.42
2022-08-16T18:18:52.268Z,1.85
2022-08-16T18:21:37.525Z,1.60
2022-08-16T18:24:05.804Z,7.30
2022-08-16T18:26:33.784Z,2.30
2022-08-16T18:29:01.612Z,2.28
2022-08-16T18:31:31.317Z,1.80
2022-08-16T18:33:59.367Z,1.70
2022-08-16T18:36:27.452Z,2.30
2022-08-16T18:38:55.746Z,2.10
2022-08-16T18:41:25.862Z,3.05
2022-08-16T18:44:26.538Z,2.17
2022-08-16T18:46:50.723Z,2.90
2022-08-16T18:49:19.729Z,2.65
2022-08-16T18:51:47.876Z,3.35
2022-08-16T18:54:18.606Z,3.42
2022-08-16T18:56:56.117Z,3.03
2022-08-16T18:59:26.911Z,4.05
2022-08-16T19:02:00.101Z,2.97
2022-08-16T19:04:47.608Z,3.42
2022-08-16T19:07:20.862Z,3.33
2022-08-16T19:09:48.945Z,4.00
2022-08-16T19:12:16.896Z,2.90
2022-08-16T19:15:07.146Z,3.00
2022-08-16T19:17:36.901Z,2.47
2022-08-16T19:20:10.490Z,3.00
2022-08-16T19:23:02.145Z,3.50
2022-08-16T19:25:48.484Z,3.10
2022-08-16T19:28:46.671Z,3.33
2022-08-16T19:31:10.706Z,4.00
2022-08-16T19:33:40.527Z,3.60
2022-08-16T19:36:32.084Z,3.53
2022-08-16T19:39:05.394Z,3.13
2022-08-16T19:41:36.208Z,3.20
2022-08-16T19:44:05.508Z,3.50
2022-08-16T19:46:33.677Z,3.70
2022-08-16T19:49:03.474Z,3.50
2022-08-16T19:51:31.645Z,3.00
2022-08-16T19:53:59.775Z,3.00
2022-08-16T19:56:27.685Z,3.97
2022-08-16T20:01:45.216Z,8.27
2022-08-16T20:04:14.864Z,23.80
2022-08-16T20:06:43.264Z,26.83
2022-08-16T20:09:14.933Z,22.80
2022-08-16T20:11:43.865Z,13.07
2022-08-16T20:14:24.633Z,23.60
2022-08-16T20:16:55.515Z,22.70
2022-08-16T20:19:25.132Z,20.40
2022-08-16T20:21:53.120Z,19.80
2022-08-16T20:24:36.794Z,18.37
2022-08-16T20:27:07.676Z,18.00
2022-08-16T20:29:36.487Z,15.90
2022-08-16T20:32:05.724Z,14.53
2022-08-16T20:34:35.734Z,13.47
2022-08-16T20:37:05.019Z,13.27
2022-08-16T20:39:33.464Z,11.17
2022-08-16T20:42:01.341Z,10.17
2022-08-16T20:44:29.236Z,9.67
2022-08-16T20:46:57.035Z,8.87
2022-08-16T20:49:24.937Z,9.00
2022-08-16T20:51:59.149Z,8.37
2022-08-16T20:54:28.367Z,7.93
2022-08-16T20:56:56.465Z,8.20
2022-08-16T20:59:24.322Z,8.67
2022-08-16T21:01:52.210Z,8.70
2022-08-16T21:04:20.317Z,9.60
2022-08-16T21:06:53.815Z,8.60
2022-08-16T21:09:24.741Z,8.47
2022-08-16T21:11:54.380Z,6.90
2022-08-16T21:14:22.253Z,7.07
2022-08-16T21:16:50.163Z,6.53
2022-08-16T21:19:18.074Z,7.33
2022-08-16T21:21:45.972Z,6.60
2022-08-16T21:24:14.355Z,6.07
2022-08-16T21:26:53.046Z,6.63
2022-08-16T21:29:40.033Z,8.67
2022-08-16T21:32:14.149Z,7.40
2022-08-16T21:34:42.935Z,8.20
2022-08-16T21:37:11.077Z,8.00
2022-08-16T21:39:39.087Z,8.27
2022-08-16T21:42:10.655Z,7.73
2022-08-16T21:44:39.210Z,8.40
2022-08-16T21:47:08.252Z,7.63
2022-08-16T21:49:37.633Z,7.80
2022-08-16T21:52:06.808Z,7.37
2022-08-16T21:54:35.366Z,7.10
2022-08-16T21:57:05.562Z,7.43
2022-08-16T21:59:37.943Z,7.10
2022-08-16T22:02:06.433Z,7.10
2022-08-16T22:04:36.921Z,7.13
2022-08-16T22:07:06.332Z,6.83
2022-08-16T22:09:34.163Z,6.40
2022-08-16T22:12:01.981Z,6.60
2022-08-16T22:14:29.933Z,7.30
2022-08-16T22:16:59.149Z,7.00
2022-08-16T22:19:26.962Z,6.67
2022-08-16T22:21:55.581Z,6.83
2022-08-16T22:24:23.474Z,6.83
2022-08-16T22:26:51.260Z,6.20
2022-08-16T22:29:19.201Z,6.43
2022-08-16T22:31:47.058Z,6.33
2022-08-16T22:34:16.522Z,5.93
2022-08-16T22:36:44.639Z,6.53
2022-08-16T22:39:14.720Z,5.60
2022-08-16T22:41:45.418Z,5.27
2022-08-16T22:44:13.759Z,6.07
2022-08-16T22:46:41.577Z,6.00
2022-08-16T22:49:10.582Z,6.10
2022-08-16T22:51:40.266Z,5.50
2022-08-16T22:54:47.387Z,6.07
2022-08-16T22:56:57.698Z,5.90
2022-08-16T22:59:25.983Z,6.90
2022-08-16T23:01:54.520Z,5.93
2022-08-16T23:04:22.444Z,6.07
2022-08-16T23:06:52.195Z,6.10
2022-08-16T23:09:19.966Z,5.90
2022-08-16T23:11:48.033Z,5.93
2022-08-16T23:14:16.519Z,5.97
2022-08-16T23:16:47.212Z,6.10
2022-08-16T23:19:17.364Z,5.00
2022-08-16T23:21:48.903Z,5.67
2022-08-16T23:24:19.262Z,5.10
2022-08-16T23:26:49.063Z,5.20
2022-08-16T23:29:24.451Z,4.70
2022-08-16T23:31:56.697Z,3.83
2022-08-16T23:34:25.339Z,4.50
2022-08-16T23:36:53.204Z,3.90
2022-08-16T23:39:22.385Z,4.03
2022-08-16T23:41:50.269Z,4.37
2022-08-16T23:44:57.719Z,4.83
2022-08-16T23:47:06.903Z,4.40
2022-08-16T23:49:57.793Z,4.27
2022-08-16T23:52:40.506Z,4.00
2022-08-16T23:55:12.140Z,3.80
2022-08-16T23:57:39.973Z,4.10
